BIBD

Bildudalur  Airport

Bildudalur, Iceland

BIBD 171648Z 31004KT 9999 SCT030 01/M04 Q1015

Observed Flight Rules
Nov-17 @ 16:48 UTC (12 hours ago)
 
Visual Flight Rules
Wind Visibility Clouds
310° at 4 knots 10,000+ meters
  • Scattered at 3,000' AGL
Temperatures Readings
Current 1°C / 34°F
Dewpoint -4°C / 25°F
Humidity 70%
Altimeter 29.97" Hg
Pressure 1015 hPa
Elevation 6
Observed Flight Rules
Nov-17 @ 16:48 UTC
(12 hours ago)
 
VFR
Wind Visibility
310° at 4 knots 10,000+ meters
Clouds
  • Scattered at 3,000' AGL
Temperature Dewpoint
1°C / 34°F -4°C / 25°F
Humidity Altimeter Pressure
70% 29.97" Hg 1015 hPa